METAR Data
IDs: Format: Raw Decoded Include TAF

Data at: 1306 UTC 25 Sep 2018

KERV 251255Z AUTO 16006KT 10SM BKN009 OVC014 22/20 A2998 RMK AO2 T02200202
KERV 251235Z AUTO 17004KT 10SM BKN009 OVC014 22/20 A2998 RMK AO2 T02200202
KERV 251215Z AUTO 16004KT 10SM BKN009 BKN014 BKN027 22/20 A2997 RMK AO2 T02200201
KERV 251155Z AUTO 16006KT 10SM BKN009 BKN014 OVC027 22/20 A2996 RMK AO2 T02200201 10226 20190
KERV 251135Z AUTO 16007KT 10SM OVC009 23/21 A2996 RMK AO2 T02260208
KERV 251115Z AUTO 17008KT 10SM OVC007 23/21 A2995 RMK AO2 T02260210
KERV 251055Z AUTO 16007KT 10SM OVC007 23/21 A2995 RMK AO2 T02260210
KERV 251035Z AUTO 16007KT 7SM OVC005 23/21 A2995 RMK AO2 T02260210
KERV 251015Z AUTO 16007KT 7SM OVC007 22/21 A2995 RMK AO2 T02240208
KERV 250955Z AUTO 14005KT 10SM OVC007 22/21 A2995 RMK AO2 T02200205
KERV 250935Z AUTO 00000KT 10SM OVC007 22/20 A2995 RMK AO2 T02200202
KERV 250915Z AUTO 00000KT 10SM OVC007 22/20 A2995 RMK AO2 T02200203

KT82 251255Z AUTO 19005KT 10SM SCT013 22/20 A2999 RMK AO2 T02180200
KT82 251235Z AUTO 19005KT 10SM SCT022 SCT029 SCT041 22/20 A2998 RMK AO2 T02200200
KT82 251215Z AUTO 18004KT 10SM BKN012 BKN022 BKN029 22/21 A2997 RMK AO2 T02220205
KT82 251155Z AUTO 00000KT 10SM OVC010 22/21 A2997 RMK AO2 70001 T02220205 10222 20193
KT82 251135Z AUTO 00000KT 10SM OVC010 22/20 A2997 RMK AO2 T02190204
KT82 251115Z AUTO 00000KT 10SM BKN012 BKN020 OVC025 22/20 A2996 RMK AO2 T02150199
KT82 251055Z AUTO 00000KT 10SM SCT012 BKN022 BKN034 22/20 A2996 RMK AO2 T02150199
KT82 251035Z AUTO 00000KT 10SM BKN015 BKN020 BKN029 22/20 A2996 RMK AO2 T02150198
KT82 251015Z AUTO 00000KT 10SM OVC011 22/20 A2996 RMK AO2 T02150197
KT82 250955Z AUTO 00000KT 10SM OVC011 21/20 A2996 RMK AO2 T02140196
KT82 250935Z AUTO 00000KT 10SM OVC011 21/20 A2996 RMK AO2 T02120195
KT82 250915Z AUTO 00000KT 10SM OVC011 21/19 A2996 RMK AO2 T02110193

KJCT 251251Z AUTO 07005KT 8SM OVC019 22/21 A2997 RMK AO2 SLP113 T02170211
KJCT 251151Z AUTO 08005KT 10SM OVC019 21/21 A2995 RMK AO2 SLP106 T02110211 10211 20178 51004
KJCT 251126Z AUTO 06004KT 8SM OVC015 21/20 A2995 RMK AO2 T02060200
KJCT 251051Z AUTO 00000KT 8SM BKN013 18/18 A2995 RMK AO2 SLP107 T01830183
KJCT 251046Z AUTO 00000KT 8SM BKN013 18/18 A2995 RMK AO2
KJCT 250951Z AUTO 03003KT 10SM CLR 19/19 A2994 RMK AO2 SLP103 T01940189

K5C1 251255Z AUTO 19005KT 10SM BKN011 OVC016 22/22 A2999 RMK AO1
K5C1 251235Z AUTO 19006KT 10SM BKN011 OVC014 22/21 A2998 RMK AO1
K5C1 251215Z AUTO 19006KT 10SM BKN009 OVC014 22/22 A2997 RMK AO1
K5C1 251155Z AUTO 19006KT 10SM BKN009 OVC014 22/22 A2997 RMK AO1
K5C1 251135Z AUTO 19006KT 10SM BKN009 22/22 A2996 RMK AO1
K5C1 251115Z AUTO 19004KT 10SM BKN009 BKN026 BKN048 22/21 A2996 RMK AO1
K5C1 251055Z AUTO 20005KT 10SM SCT009 SCT026 BKN048 22/21 A2996 RMK AO1
K5C1 251035Z AUTO 20008KT 10SM BKN007 BKN022 BKN038 22/22 A2996 RMK AO1
K5C1 251015Z AUTO 19006KT 10SM OVC007 22/22 A2996 RMK AO1
K5C1 250955Z AUTO 19009KT 10SM OVC005 22/22 A2996 RMK AO1
K5C1 250935Z AUTO 19005KT 10SM OVC005 22/22 A2996 RMK AO1
K5C1 250915Z AUTO 19004KT 10SM OVC005 22/22 A2996 RMK AO1

KHDO 251251Z AUTO 16005KT 10SM OVC010 24/23 A2995 RMK AO2 CIG 006V013 SLP126 T02440233
KHDO 251248Z AUTO 16005KT 10SM OVC010 24/23 A2995 RMK AO2 CIG 006V013
KHDO 251151Z AUTO 15004KT 10SM BKN008 BKN043 24/23 A2993 RMK AO2 SLP120 T02390228 10239 20239 53005 $
KHDO 251141Z AUTO 14005KT 10SM FEW008 BKN043 24/23 A2993 RMK AO2 T02390228 $
KHDO 251051Z AUTO 14006KT 8SM CLR 24/23 A2992 RMK AO2 SLP114 T02390228 $
KHDO 250951Z AUTO 14004KT 8SM FEW006 SCT050 BKN060 24/23 A2992 RMK AO2 SLP113 T02390228 $